Shin Chun — VRFD2 — position and weather

sailwx.info

Track history (hours):
 
Tides and Currents Weather Stations Pressure Air Temp Water Temp Dewpoint Dewpoint Depression Visibility Wind Speed Wind Dir Waves Ship Positions

Shin Chun

Last reported at 2014-Sep-18 07:24 UTC. Time now 2014-Sep-18 07:40 UTC.
Position N 26°00' E 119°29'.

Length 152 m; draft 6 m.

Type: Cargo ship. MMSI: 477218300.

Date/timePositionNaut miles runAvg speedWind from/ knotsBaromVisibWave heightAir tempDewpointWater temp
2014-Sep-18 07:24N 26°00' E 119°29'0 0.0
2014-Sep-18 06:30N 26°00' E 119°29'0 0.0
2014-Sep-18 05:30N 26°00' E 119°29'0 0.0
2014-Sep-18 04:30N 26°00' E 119°29'0 0.0
2014-Sep-18 03:18N 26°00' E 119°29'0 0.0
2014-Sep-18 02:18N 26°00' E 119°29'0 0.0
2014-Sep-18 01:18N 26°00' E 119°29'0 0.0
2014-Sep-18 00:12N 26°00' E 119°29'0 0.1
2014-Sep-17 23:33N 26°00' E 119°29'12 8.5
2014-Sep-17 22:07N 26°06' E 119°41'12 7.2
2014-Sep-17 20:24N 25°59' E 119°52'39 9.5
2014-Sep-17 16:19N 25°20' E 119°54'1810.1
2014-Sep-17 14:33N 25°18' E 119°35'1212.0
2014-Sep-17 13:33N 25°22' E 119°22'6 5.6
2014-Sep-17 12:34N 25°25' E 119°17'0 0.0
2014-Sep-17 11:32N 25°25' E 119°17'0 0.0
2014-Sep-17 10:29N 25°25' E 119°17'0 0.0
2014-Sep-17 09:29N 25°25' E 119°17'0 0.0
2014-Sep-17 08:29N 25°25' E 119°17'0 0.0
2014-Sep-17 07:28N 25°25' E 119°17'0 0.0
2014-Sep-17 06:29N 25°25' E 119°17'0 0.0
2014-Sep-17 05:28N 25°25' E 119°17'0 0.0
2014-Sep-17 04:16N 25°25' E 119°17'0 0.0
2014-Sep-17 03:22N 25°25' E 119°17'0 0.1
2014-Sep-17 02:33N 25°25' E 119°17'1110.9
2014-Sep-17 01:33N 25°19' E 119°27'1110.7
2014-Sep-17 00:33N 25°17' E 119°39'1 0.1
2014-Sep-16 17:34N 25°17' E 119°40'147 7.7
2014-Sep-15 22:26N 22°51' E 120°01'1112.3
2014-Sep-15 21:34N 22°41' E 120°07'1111.0
2014-Sep-15 20:34N 22°36' E 120°17'2 1.6
2014-Sep-15 19:27N 22°35' E 120°18'0 0.0
2014-Sep-15 18:33N 22°35' E 120°18'0 0.0
2014-Sep-15 17:26N 22°35' E 120°18'0 0.0
2014-Sep-15 16:32N 22°35' E 120°18'0 0.0
2014-Sep-15 15:26N 22°35' E 120°18'0 0.0
2014-Sep-15 14:32N 22°35' E 120°18'0 0.0
2014-Sep-15 13:32N 22°35' E 120°18'0 0.0
2014-Sep-15 12:32N 22°35' E 120°18'0 0.3
2014-Sep-15 11:34N 22°35' E 120°18'5 4.9
2014-Sep-15 10:33N 22°37' E 120°13'8 8.3
2014-Sep-15 09:34N 22°41' E 120°05'1313.2
2014-Sep-15 08:33N 22°48' E 119°53'1312.9
2014-Sep-15 07:32N 22°56' E 119°42'10211.3
2014-Sep-14 22:32N 24°08' E 118°23'1212.6
2014-Sep-14 21:33N 24°17' E 118°14'1312.8
2014-Sep-14 20:34N 24°26' E 118°04'6 5.5
2014-Sep-14 19:32N 24°31' E 118°05'0 0.0
2014-Sep-14 18:32N 24°31' E 118°05'0 0.0
2014-Sep-14 17:32N 24°31' E 118°05'0 0.0
2014-Sep-14 16:32N 24°31' E 118°05'0 0.0
2014-Sep-14 15:26N 24°31' E 118°05'0 0.0
2014-Sep-14 14:31N 24°31' E 118°05'0 0.0
2014-Sep-14 13:26N 24°31' E 118°05'0 0.0
2014-Sep-14 12:31N 24°31' E 118°05'0 0.0
2014-Sep-14 11:31N 24°31' E 118°05'0 0.0
2014-Sep-14 10:31N 24°31' E 118°05'0 0.0
2014-Sep-14 09:31N 24°31' E 118°05'0 0.0
2014-Sep-14 08:31N 24°31' E 118°05'0 0.0
2014-Sep-14 07:31N 24°31' E 118°05'0 0.0
2014-Sep-14 06:25N 24°31' E 118°05'2 2.0
2014-Sep-14 05:33N 24°30' E 118°04'14113.7
2014-Sep-13 19:16N 22°50' E 119°53'1014.0
2014-Sep-13 18:34N 22°44' E 120°02'1413.7
2014-Sep-13 17:33N 22°37' E 120°15'4 4.2
2014-Sep-13 16:33N 22°35' E 120°18'0 0.0
2014-Sep-13 15:33N 22°35' E 120°18'0 0.0
2014-Sep-13 14:33N 22°35' E 120°18'0 0.0
2014-Sep-13 13:21N 22°35' E 120°18'0 0.0
2014-Sep-13 12:27N 22°35' E 120°18'0 0.0
2014-Sep-13 11:33N 22°35' E 120°18'0 0.0
2014-Sep-13 10:33N 22°35' E 120°18'3 2.9
2014-Sep-13 09:33N 22°37' E 120°16'3 3.1
2014-Sep-13 08:30N 22°37' E 120°13'0 0.1
2014-Sep-13 07:33N 22°37' E 120°13'0 0.4
2014-Sep-13 06:29N 22°37' E 120°13'0 0.1
2014-Sep-13 05:29N 22°37' E 120°13'0 0.0
2014-Sep-13 04:29N 22°37' E 120°13'0 0.1
2014-Sep-13 03:29N 22°37' E 120°13'0 0.0
2014-Sep-13 02:29N 22°37' E 120°13'0 0.0
2014-Sep-13 01:29N 22°37' E 120°13'0 0.0
2014-Sep-13 00:29N 22°37' E 120°13'0 0.1
2014-Sep-12 23:29N 22°37' E 120°13'0 0.0
2014-Sep-12 22:29N 22°37' E 120°13'4 4.4
2014-Sep-12 21:33N 22°40' E 120°11'1313.2
2014-Sep-12 20:33N 22°50' E 120°02'10811.9
2014-Sep-12 11:28N 24°38' E 120°00'1413.2
2014-Sep-12 10:22N 24°53' E 120°02'7412.8
2014-Sep-12 04:33N 26°05' E 119°43'9 9.2
2014-Sep-12 03:33N 26°07' E 119°33'8 7.8
2014-Sep-12 02:33N 26°00' E 119°29'0 0.0
2014-Sep-12 01:32N 26°00' E 119°29'0 0.0
2014-Sep-12 00:32N 26°00' E 119°29'0 0.0
2014-Sep-11 23:32N 26°00' E 119°29'0 0.0
2014-Sep-11 22:32N 26°00' E 119°29'0 0.0
2014-Sep-11 21:32N 26°00' E 119°29'0 0.0
2014-Sep-11 20:26N 26°00' E 119°29'0 0.0
2014-Sep-11 19:26N 26°00' E 119°29'0 0.0
2014-Sep-11 18:26N 26°00' E 119°29'0 0.0
2014-Sep-11 17:32N 26°00' E 119°29'0 0.0
2014-Sep-11 16:32N 26°00' E 119°29'0 0.0
2014-Sep-11 15:32N 26°00' E 119°29'0 0.0
2014-Sep-11 14:32N 26°00' E 119°29'0 0.0
2014-Sep-11 13:32N 26°00' E 119°29'0 0.0
2014-Sep-11 12:32N 26°00' E 119°29'0 0.0
2014-Sep-11 11:26N 26°00' E 119°29'0 0.0
2014-Sep-11 10:26N 26°00' E 119°29'0 0.0
2014-Sep-11 09:32N 26°00' E 119°29'0 0.0
2014-Sep-11 08:25N 26°00' E 119°29'0 0.0
2014-Sep-11 07:25N 26°00' E 119°29'0 0.0
2014-Sep-11 06:25N 26°00' E 119°29'0 0.0
2014-Sep-11 05:31N 26°00' E 119°29'0 0.0
2014-Sep-11 04:33N 26°00' E 119°29'10 9.9
2014-Sep-11 03:31N 26°08' E 119°36'10 9.5
2014-Sep-11 02:30N 26°05' E 119°47'7 0.8
2014-Sep-10 17:06N 25°60' E 119°52'4611.8
2014-Sep-10 13:12N 25°14' E 119°47'912.2
2014-Sep-10 12:30N 25°17' E 119°38'1010.6
2014-Sep-10 11:33N 25°19' E 119°27'1111.3
2014-Sep-10 10:33N 25°25' E 119°17'0 0.0
2014-Sep-10 09:26N 25°25' E 119°17'0 0.0
2014-Sep-10 08:26N 25°25' E 119°17'0 0.0
2014-Sep-10 07:32N 25°25' E 119°17'0 0.0
2014-Sep-10 06:32N 25°25' E 119°17'0 0.0
2014-Sep-10 05:32N 25°25' E 119°17'0 0.0
2014-Sep-10 04:32N 25°25' E 119°17'0 0.0
2014-Sep-10 03:26N 25°25' E 119°17'0 0.0
2014-Sep-10 02:31N 25°25' E 119°17'8 8.7
2014-Sep-10 01:33N 25°21' E 119°25'1310.6
2014-Sep-10 00:18N 25°17' E 119°39'0 0.1
2014-Sep-09 23:12N 25°18' E 119°39'0 0.1
2014-Sep-09 22:18N 25°18' E 119°39'0 0.1
2014-Sep-09 21:24N 25°17' E 119°39'0 0.0
2014-Sep-09 17:30N 25°17' E 119°39'0 0.1
2014-Sep-09 16:27N 25°17' E 119°39'0 0.1
2014-Sep-09 15:27N 25°18' E 119°39'1 0.6
2014-Sep-09 14:30N 25°17' E 119°39'4213.5
2014-Sep-09 11:25N 24°43' E 120°06'1613.5
2014-Sep-09 10:15N 24°30' E 120°16'1013.5
2014-Sep-09 09:32N 24°23' E 120°23'93 7.0
2014-Sep-08 20:20N 22°52' E 119°60'1113.4
2014-Sep-08 19:33N 22°43' E 120°06'1313.0
2014-Sep-08 18:33N 22°33' E 120°14'4 4.1
2014-Sep-08 17:31N 22°35' E 120°18'0 0.0
2014-Sep-08 16:31N 22°35' E 120°18'0 0.0
2014-Sep-08 15:31N 22°35' E 120°18'0 0.0
2014-Sep-08 14:25N 22°35' E 120°18'0 0.0
2014-Sep-08 13:25N 22°35' E 120°18'0 0.0
2014-Sep-08 12:31N 22°35' E 120°18'0 0.0
2014-Sep-08 11:31N 22°35' E 120°18'0 0.0
2014-Sep-08 10:31N 22°35' E 120°18'0 0.0
2014-Sep-08 09:31N 22°35' E 120°18'0 0.0
2014-Sep-08 08:31N 22°35' E 120°18'0 0.0
2014-Sep-08 07:25N 22°35' E 120°18'  
Track history (hours):
 
Tides and Currents Weather Stations Pressure Air Temp Water Temp Dewpoint Dewpoint Depression Visibility Wind Speed Wind Dir Waves Ship Positions

Shin Chun

Last reported at 2014-Sep-18 07:24 UTC. Time now 2014-Sep-18 07:40 UTC.
Position N 26°00' E 119°29'.

Length 152 m; draft 6 m.

Type: Cargo ship. MMSI: 477218300.

Date/timePositionNaut miles runAvg speedWind from/ knotsBaromVisibWave heightAir tempDewpointWater temp
2014-Sep-18 07:24N 26°00' E 119°29'0 0.0
2014-Sep-18 06:30N 26°00' E 119°29'0 0.0
2014-Sep-18 05:30N 26°00' E 119°29'0 0.0
2014-Sep-18 04:30N 26°00' E 119°29'0 0.0
2014-Sep-18 03:18N 26°00' E 119°29'0 0.0
2014-Sep-18 02:18N 26°00' E 119°29'0 0.0
2014-Sep-18 01:18N 26°00' E 119°29'0 0.0
2014-Sep-18 00:12N 26°00' E 119°29'0 0.1
2014-Sep-17 23:33N 26°00' E 119°29'12 8.5
2014-Sep-17 22:07N 26°06' E 119°41'12 7.2
2014-Sep-17 20:24N 25°59' E 119°52'39 9.5
2014-Sep-17 16:19N 25°20' E 119°54'1810.1
2014-Sep-17 14:33N 25°18' E 119°35'1212.0
2014-Sep-17 13:33N 25°22' E 119°22'6 5.6
2014-Sep-17 12:34N 25°25' E 119°17'0 0.0
2014-Sep-17 11:32N 25°25' E 119°17'0 0.0
2014-Sep-17 10:29N 25°25' E 119°17'0 0.0
2014-Sep-17 09:29N 25°25' E 119°17'0 0.0
2014-Sep-17 08:29N 25°25' E 119°17'0 0.0
2014-Sep-17 07:28N 25°25' E 119°17'0 0.0
2014-Sep-17 06:29N 25°25' E 119°17'0 0.0
2014-Sep-17 05:28N 25°25' E 119°17'0 0.0
2014-Sep-17 04:16N 25°25' E 119°17'0 0.0
2014-Sep-17 03:22N 25°25' E 119°17'0 0.1
2014-Sep-17 02:33N 25°25' E 119°17'1110.9
2014-Sep-17 01:33N 25°19' E 119°27'1110.7
2014-Sep-17 00:33N 25°17' E 119°39'1 0.1
2014-Sep-16 17:34N 25°17' E 119°40'147 7.7
2014-Sep-15 22:26N 22°51' E 120°01'1112.3
2014-Sep-15 21:34N 22°41' E 120°07'1111.0
2014-Sep-15 20:34N 22°36' E 120°17'2 1.6
2014-Sep-15 19:27N 22°35' E 120°18'0 0.0
2014-Sep-15 18:33N 22°35' E 120°18'0 0.0
2014-Sep-15 17:26N 22°35' E 120°18'0 0.0
2014-Sep-15 16:32N 22°35' E 120°18'0 0.0
2014-Sep-15 15:26N 22°35' E 120°18'0 0.0
2014-Sep-15 14:32N 22°35' E 120°18'0 0.0
2014-Sep-15 13:32N 22°35' E 120°18'0 0.0
2014-Sep-15 12:32N 22°35' E 120°18'0 0.3
2014-Sep-15 11:34N 22°35' E 120°18'5 4.9
2014-Sep-15 10:33N 22°37' E 120°13'8 8.3
2014-Sep-15 09:34N 22°41' E 120°05'1313.2
2014-Sep-15 08:33N 22°48' E 119°53'1312.9
2014-Sep-15 07:32N 22°56' E 119°42'10211.3
2014-Sep-14 22:32N 24°08' E 118°23'1212.6
2014-Sep-14 21:33N 24°17' E 118°14'1312.8
2014-Sep-14 20:34N 24°26' E 118°04'6 5.5
2014-Sep-14 19:32N 24°31' E 118°05'0 0.0
2014-Sep-14 18:32N 24°31' E 118°05'0 0.0
2014-Sep-14 17:32N 24°31' E 118°05'0 0.0
2014-Sep-14 16:32N 24°31' E 118°05'0 0.0
2014-Sep-14 15:26N 24°31' E 118°05'0 0.0
2014-Sep-14 14:31N 24°31' E 118°05'0 0.0
2014-Sep-14 13:26N 24°31' E 118°05'0 0.0
2014-Sep-14 12:31N 24°31' E 118°05'0 0.0
2014-Sep-14 11:31N 24°31' E 118°05'0 0.0
2014-Sep-14 10:31N 24°31' E 118°05'0 0.0
2014-Sep-14 09:31N 24°31' E 118°05'0 0.0
2014-Sep-14 08:31N 24°31' E 118°05'0 0.0
2014-Sep-14 07:31N 24°31' E 118°05'0 0.0
2014-Sep-14 06:25N 24°31' E 118°05'2 2.0
2014-Sep-14 05:33N 24°30' E 118°04'14113.7
2014-Sep-13 19:16N 22°50' E 119°53'1014.0
2014-Sep-13 18:34N 22°44' E 120°02'1413.7
2014-Sep-13 17:33N 22°37' E 120°15'4 4.2
2014-Sep-13 16:33N 22°35' E 120°18'0 0.0
2014-Sep-13 15:33N 22°35' E 120°18'0 0.0
2014-Sep-13 14:33N 22°35' E 120°18'0 0.0
2014-Sep-13 13:21N 22°35' E 120°18'0 0.0
2014-Sep-13 12:27N 22°35' E 120°18'0 0.0
2014-Sep-13 11:33N 22°35' E 120°18'0 0.0
2014-Sep-13 10:33N 22°35' E 120°18'3 2.9
2014-Sep-13 09:33N 22°37' E 120°16'3 3.1
2014-Sep-13 08:30N 22°37' E 120°13'0 0.1
2014-Sep-13 07:33N 22°37' E 120°13'0 0.4
2014-Sep-13 06:29N 22°37' E 120°13'0 0.1
2014-Sep-13 05:29N 22°37' E 120°13'0 0.0
2014-Sep-13 04:29N 22°37' E 120°13'0 0.1
2014-Sep-13 03:29N 22°37' E 120°13'0 0.0
2014-Sep-13 02:29N 22°37' E 120°13'0 0.0
2014-Sep-13 01:29N 22°37' E 120°13'0 0.0
2014-Sep-13 00:29N 22°37' E 120°13'0 0.1
2014-Sep-12 23:29N 22°37' E 120°13'0 0.0
2014-Sep-12 22:29N 22°37' E 120°13'4 4.4
2014-Sep-12 21:33N 22°40' E 120°11'1313.2
2014-Sep-12 20:33N 22°50' E 120°02'10811.9
2014-Sep-12 11:28N 24°38' E 120°00'1413.2
2014-Sep-12 10:22N 24°53' E 120°02'7412.8
2014-Sep-12 04:33N 26°05' E 119°43'9 9.2
2014-Sep-12 03:33N 26°07' E 119°33'8 7.8
2014-Sep-12 02:33N 26°00' E 119°29'0 0.0
2014-Sep-12 01:32N 26°00' E 119°29'0 0.0
2014-Sep-12 00:32N 26°00' E 119°29'0 0.0
2014-Sep-11 23:32N 26°00' E 119°29'0 0.0
2014-Sep-11 22:32N 26°00' E 119°29'0 0.0
2014-Sep-11 21:32N 26°00' E 119°29'0 0.0
2014-Sep-11 20:26N 26°00' E 119°29'0 0.0
2014-Sep-11 19:26N 26°00' E 119°29'0 0.0
2014-Sep-11 18:26N 26°00' E 119°29'0 0.0
2014-Sep-11 17:32N 26°00' E 119°29'0 0.0
2014-Sep-11 16:32N 26°00' E 119°29'0 0.0
2014-Sep-11 15:32N 26°00' E 119°29'0 0.0
2014-Sep-11 14:32N 26°00' E 119°29'0 0.0
2014-Sep-11 13:32N 26°00' E 119°29'0 0.0
2014-Sep-11 12:32N 26°00' E 119°29'0 0.0
2014-Sep-11 11:26N 26°00' E 119°29'0 0.0
2014-Sep-11 10:26N 26°00' E 119°29'0 0.0
2014-Sep-11 09:32N 26°00' E 119°29'0 0.0
2014-Sep-11 08:25N 26°00' E 119°29'0 0.0
2014-Sep-11 07:25N 26°00' E 119°29'0 0.0
2014-Sep-11 06:25N 26°00' E 119°29'0 0.0
2014-Sep-11 05:31N 26°00' E 119°29'0 0.0
2014-Sep-11 04:33N 26°00' E 119°29'10 9.9
2014-Sep-11 03:31N 26°08' E 119°36'10 9.5
2014-Sep-11 02:30N 26°05' E 119°47'7 0.8
2014-Sep-10 17:06N 25°60' E 119°52'4611.8
2014-Sep-10 13:12N 25°14' E 119°47'912.2
2014-Sep-10 12:30N 25°17' E 119°38'1010.6
2014-Sep-10 11:33N 25°19' E 119°27'1111.3
2014-Sep-10 10:33N 25°25' E 119°17'0 0.0
2014-Sep-10 09:26N 25°25' E 119°17'0 0.0
2014-Sep-10 08:26N 25°25' E 119°17'0 0.0
2014-Sep-10 07:32N 25°25' E 119°17'0 0.0
2014-Sep-10 06:32N 25°25' E 119°17'0 0.0
2014-Sep-10 05:32N 25°25' E 119°17'0 0.0
2014-Sep-10 04:32N 25°25' E 119°17'0 0.0
2014-Sep-10 03:26N 25°25' E 119°17'0 0.0
2014-Sep-10 02:31N 25°25' E 119°17'8 8.7
2014-Sep-10 01:33N 25°21' E 119°25'1310.6
2014-Sep-10 00:18N 25°17' E 119°39'0 0.1
2014-Sep-09 23:12N 25°18' E 119°39'0 0.1
2014-Sep-09 22:18N 25°18' E 119°39'0 0.1
2014-Sep-09 21:24N 25°17' E 119°39'0 0.0
2014-Sep-09 17:30N 25°17' E 119°39'0 0.1
2014-Sep-09 16:27N 25°17' E 119°39'0 0.1
2014-Sep-09 15:27N 25°18' E 119°39'1 0.6
2014-Sep-09 14:30N 25°17' E 119°39'4213.5
2014-Sep-09 11:25N 24°43' E 120°06'1613.5
2014-Sep-09 10:15N 24°30' E 120°16'1013.5
2014-Sep-09 09:32N 24°23' E 120°23'93 7.0
2014-Sep-08 20:20N 22°52' E 119°60'1113.4
2014-Sep-08 19:33N 22°43' E 120°06'1313.0
2014-Sep-08 18:33N 22°33' E 120°14'4 4.1
2014-Sep-08 17:31N 22°35' E 120°18'0 0.0
2014-Sep-08 16:31N 22°35' E 120°18'0 0.0
2014-Sep-08 15:31N 22°35' E 120°18'0 0.0
2014-Sep-08 14:25N 22°35' E 120°18'0 0.0
2014-Sep-08 13:25N 22°35' E 120°18'0 0.0
2014-Sep-08 12:31N 22°35' E 120°18'0 0.0
2014-Sep-08 11:31N 22°35' E 120°18'0 0.0
2014-Sep-08 10:31N 22°35' E 120°18'0 0.0
2014-Sep-08 09:31N 22°35' E 120°18'0 0.0
2014-Sep-08 08:31N 22°35' E 120°18'0 0.0
2014-Sep-08 07:25N 22°35' E 120°18'  

Dump ship's entire track history